sensor_id;sensor_type;location;lat;lon;timestamp;temperature;humidity
30001;DHT22;16845;48.670;9.000;2022-07-29T00:02:06;18.60;99.90
30001;DHT22;16845;48.670;9.000;2022-07-29T00:04:35;18.50;99.90
30001;DHT22;16845;48.670;9.000;2022-07-29T00:07:04;18.50;99.90
30001;DHT22;16845;48.670;9.000;2022-07-29T00:09:33;18.40;99.90
30001;DHT22;16845;48.670;9.000;2022-07-29T00:12:17;18.40;99.90
30001;DHT22;16845;48.670;9.000;2022-07-29T00:14:52;18.40;99.90
30001;DHT22;16845;48.670;9.000;2022-07-29T00:17:21;18.40;99.90
30001;DHT22;16845;48.670;9.000;2022-07-29T00:19:48;18.40;99.90
30001;DHT22;16845;48.670;9.000;2022-07-29T00:22:16;18.40;99.90
30001;DHT22;16845;48.670;9.000;2022-07-29T00:24:46;18.40;99.90
30001;DHT22;16845;48.670;9.000;2022-07-29T00:27:15;18.40;99.90
30001;DHT22;16845;48.670;9.000;2022-07-29T00:29:42;18.40;99.90
30001;DHT22;16845;48.670;9.000;2022-07-29T00:32:10;18.50;99.90
30001;DHT22;16845;48.670;9.000;2022-07-29T00:34:39;18.50;99.90
30001;DHT22;16845;48.670;9.000;2022-07-29T00:37:25;18.50;99.90
30001;DHT22;16845;48.670;9.000;2022-07-29T00:39:54;18.40;99.90
30001;DHT22;16845;48.670;9.000;2022-07-29T00:42:22;18.40;99.90
30001;DHT22;16845;48.670;9.000;2022-07-29T00:44:50;18.40;99.90
30001;DHT22;16845;48.670;9.000;2022-07-29T00:47:18;18.50;99.90
30001;DHT22;16845;48.670;9.000;2022-07-29T00:49:46;18.40;99.90
30001;DHT22;16845;48.670;9.000;2022-07-29T00:52:14;18.40;99.90
30001;DHT22;16845;48.670;9.000;2022-07-29T00:54:43;18.40;99.90
30001;DHT22;16845;48.670;9.000;2022-07-29T00:57:12;18.40;99.90
30001;DHT22;16845;48.670;9.000;2022-07-29T00:59:40;18.40;99.90
30001;DHT22;16845;48.670;9.000;2022-07-29T01:02:08;18.30;99.90
30001;DHT22;16845;48.670;9.000;2022-07-29T01:04:37;18.30;99.90
30001;DHT22;16845;48.670;9.000;2022-07-29T01:07:05;18.30;99.90
30001;DHT22;16845;48.670;9.000;2022-07-29T01:09:34;18.20;99.90
30001;DHT22;16845;48.670;9.000;2022-07-29T01:12:17;18.20;99.90
30001;DHT22;16845;48.670;9.000;2022-07-29T01:14:46;18.20;99.90
30001;DHT22;16845;48.670;9.000;2022-07-29T01:17:19;18.20;99.90
30001;DHT22;16845;48.670;9.000;2022-07-29T01:19:57;18.10;99.90
30001;DHT22;16845;48.670;9.000;2022-07-29T01:22:31;18.10;99.90
30001;DHT22;16845;48.670;9.000;2022-07-29T01:25:17;18.10;99.90
30001;DHT22;16845;48.670;9.000;2022-07-29T01:28:03;18.10;99.90
30001;DHT22;16845;48.670;9.000;2022-07-29T01:30:40;18.10;99.90
30001;DHT22;16845;48.670;9.000;2022-07-29T01:33:15;18.00;99.90
30001;DHT22;16845;48.670;9.000;2022-07-29T01:36:00;18.00;99.90
30001;DHT22;16845;48.670;9.000;2022-07-29T01:38:29;18.00;99.90
30001;DHT22;16845;48.670;9.000;2022-07-29T01:41:02;18.00;99.90
30001;DHT22;16845;48.670;9.000;2022-07-29T01:43:39;18.00;99.90
30001;DHT22;16845;48.670;9.000;2022-07-29T01:46:14;17.90;99.90
30001;DHT22;16845;48.670;9.000;2022-07-29T01:48:45;18.00;99.90
30001;DHT22;16845;48.670;9.000;2022-07-29T01:51:19;17.90;99.90
30001;DHT22;16845;48.670;9.000;2022-07-29T01:53:54;17.90;99.90
30001;DHT22;16845;48.670;9.000;2022-07-29T01:56:24;17.90;99.90
30001;DHT22;16845;48.670;9.000;2022-07-29T01:58:57;17.90;99.90
30001;DHT22;16845;48.670;9.000;2022-07-29T02:01:29;17.90;99.90
30001;DHT22;16845;48.670;9.000;2022-07-29T02:03:59;17.90;99.90
30001;DHT22;16845;48.670;9.000;2022-07-29T02:06:29;17.90;99.90
30001;DHT22;16845;48.670;9.000;2022-07-29T02:09:01;18.00;99.90
30001;DHT22;16845;48.670;9.000;2022-07-29T02:11:31;18.00;99.90
30001;DHT22;16845;48.670;9.000;2022-07-29T02:14:01;18.10;99.90
30001;DHT22;16845;48.670;9.000;2022-07-29T02:16:33;18.10;99.90
30001;DHT22;16845;48.670;9.000;2022-07-29T02:19:04;18.10;99.90
30001;DHT22;16845;48.670;9.000;2022-07-29T02:21:33;18.00;99.90
30001;DHT22;16845;48.670;9.000;2022-07-29T02:24:02;18.00;99.90
30001;DHT22;16845;48.670;9.000;2022-07-29T02:26:32;18.00;99.90
30001;DHT22;16845;48.670;9.000;2022-07-29T02:29:02;18.00;99.90
30001;DHT22;16845;48.670;9.000;2022-07-29T02:31:34;18.00;99.90
30001;DHT22;16845;48.670;9.000;2022-07-29T02:34:05;18.00;99.90
30001;DHT22;16845;48.670;9.000;2022-07-29T02:36:34;17.90;99.90
30001;DHT22;16845;48.670;9.000;2022-07-29T02:39:03;17.90;99.90
30001;DHT22;16845;48.670;9.000;2022-07-29T02:41:41;17.90;99.90
30001;DHT22;16845;48.670;9.000;2022-07-29T02:44:11;17.80;99.90
30001;DHT22;16845;48.670;9.000;2022-07-29T02:46:48;17.80;99.90
30001;DHT22;16845;48.670;9.000;2022-07-29T02:49:22;17.70;99.90
30001;DHT22;16845;48.670;9.000;2022-07-29T02:51:55;17.70;99.90
30001;DHT22;16845;48.670;9.000;2022-07-29T02:54:29;17.70;99.90
30001;DHT22;16845;48.670;9.000;2022-07-29T02:57:01;17.60;99.90
30001;DHT22;16845;48.670;9.000;2022-07-29T02:59:34;17.60;99.90
30001;DHT22;16845;48.670;9.000;2022-07-29T03:02:06;17.60;99.90
30001;DHT22;16845;48.670;9.000;2022-07-29T03:04:35;17.50;99.90
30001;DHT22;16845;48.670;9.000;2022-07-29T03:07:03;17.50;99.90
30001;DHT22;16845;48.670;9.000;2022-07-29T03:09:33;17.50;99.90
30001;DHT22;16845;48.670;9.000;2022-07-29T03:12:01;17.50;99.90
30001;DHT22;16845;48.670;9.000;2022-07-29T03:14:31;17.50;99.90
30001;DHT22;16845;48.670;9.000;2022-07-29T03:17:00;17.50;99.90
30001;DHT22;16845;48.670;9.000;2022-07-29T03:19:29;17.50;99.90
30001;DHT22;16845;48.670;9.000;2022-07-29T03:21:58;17.40;99.90
30001;DHT22;16845;48.670;9.000;2022-07-29T03:24:29;17.40;99.90
30001;DHT22;16845;48.670;9.000;2022-07-29T03:26:58;17.40;99.90
30001;DHT22;16845;48.670;9.000;2022-07-29T03:29:26;17.40;99.90
30001;DHT22;16845;48.670;9.000;2022-07-29T03:32:01;17.40;99.90
30001;DHT22;16845;48.670;9.000;2022-07-29T03:34:36;17.40;99.90
30001;DHT22;16845;48.670;9.000;2022-07-29T03:37:05;17.40;99.90
30001;DHT22;16845;48.670;9.000;2022-07-29T03:39:38;17.30;99.90
30001;DHT22;16845;48.670;9.000;2022-07-29T03:42:10;17.30;99.90
30001;DHT22;16845;48.670;9.000;2022-07-29T03:44:40;17.20;99.90
30001;DHT22;16845;48.670;9.000;2022-07-29T03:47:09;17.20;99.90
30001;DHT22;16845;48.670;9.000;2022-07-29T03:49:40;17.20;99.90
30001;DHT22;16845;48.670;9.000;2022-07-29T03:52:09;17.20;99.90
30001;DHT22;16845;48.670;9.000;2022-07-29T03:54:37;17.20;99.90
30001;DHT22;16845;48.670;9.000;2022-07-29T03:57:05;17.10;99.90
30001;DHT22;16845;48.670;9.000;2022-07-29T03:59:35;17.00;99.90
30001;DHT22;16845;48.670;9.000;2022-07-29T04:02:05;17.00;99.90
30001;DHT22;16845;48.670;9.000;2022-07-29T04:04:36;16.90;99.90
30001;DHT22;16845;48.670;9.000;2022-07-29T04:07:05;16.90;99.90
30001;DHT22;16845;48.670;9.000;2022-07-29T04:09:33;17.00;99.90
30001;DHT22;16845;48.670;9.000;2022-07-29T04:12:01;16.90;99.90
30001;DHT22;16845;48.670;9.000;2022-07-29T04:14:31;16.90;99.90
30001;DHT22;16845;48.670;9.000;2022-07-29T04:16:59;16.90;99.90
30001;DHT22;16845;48.670;9.000;2022-07-29T04:19:28;16.90;99.90
30001;DHT22;16845;48.670;9.000;2022-07-29T04:21:56;16.90;99.90
30001;DHT22;16845;48.670;9.000;2022-07-29T04:24:25;16.90;99.90
30001;DHT22;16845;48.670;9.000;2022-07-29T04:26:53;16.90;99.90
30001;DHT22;16845;48.670;9.000;2022-07-29T04:29:21;16.90;99.90
30001;DHT22;16845;48.670;9.000;2022-07-29T04:31:49;17.00;99.90
30001;DHT22;16845;48.670;9.000;2022-07-29T04:34:17;17.00;99.90
30001;DHT22;16845;48.670;9.000;2022-07-29T04:36:46;16.90;99.90
30001;DHT22;16845;48.670;9.000;2022-07-29T04:39:14;16.90;99.90
30001;DHT22;16845;48.670;9.000;2022-07-29T04:41:49;17.00;99.90
30001;DHT22;16845;48.670;9.000;2022-07-29T04:44:20;17.00;99.90
30001;DHT22;16845;48.670;9.000;2022-07-29T04:46:55;17.10;99.90
30001;DHT22;16845;48.670;9.000;2022-07-29T04:49:23;17.20;99.90
30001;DHT22;16845;48.670;9.000;2022-07-29T04:51:52;17.40;99.90
30001;DHT22;16845;48.670;9.000;2022-07-29T04:54:20;17.50;99.90
30001;DHT22;16845;48.670;9.000;2022-07-29T04:56:49;17.60;99.90
30001;DHT22;16845;48.670;9.000;2022-07-29T04:59:17;17.80;99.90
30001;DHT22;16845;48.670;9.000;2022-07-29T05:01:45;17.90;99.90
30001;DHT22;16845;48.670;9.000;2022-07-29T05:04:13;18.00;99.90
30001;DHT22;16845;48.670;9.000;2022-07-29T05:06:41;18.10;99.90
30001;DHT22;16845;48.670;9.000;2022-07-29T05:09:09;18.20;99.90
30001;DHT22;16845;48.670;9.000;2022-07-29T05:11:37;18.40;99.90
30001;DHT22;16845;48.670;9.000;2022-07-29T05:14:06;18.40;99.90
30001;DHT22;16845;48.670;9.000;2022-07-29T05:16:34;18.50;99.90
30001;DHT22;16845;48.670;9.000;2022-07-29T05:19:02;18.60;99.90
30001;DHT22;16845;48.670;9.000;2022-07-29T05:21:30;18.70;99.90
30001;DHT22;16845;48.670;9.000;2022-07-29T05:23:58;18.70;99.90
30001;DHT22;16845;48.670;9.000;2022-07-29T05:26:25;18.80;99.90
30001;DHT22;16845;48.670;9.000;2022-07-29T05:28:53;18.90;99.90
30001;DHT22;16845;48.670;9.000;2022-07-29T05:31:23;19.00;99.90
30001;DHT22;16845;48.670;9.000;2022-07-29T05:33:51;19.10;99.90
30001;DHT22;16845;48.670;9.000;2022-07-29T05:36:18;19.20;99.90
30001;DHT22;16845;48.670;9.000;2022-07-29T05:38:46;19.20;99.90
30001;DHT22;16845;48.670;9.000;2022-07-29T05:41:14;19.10;99.90
30001;DHT22;16845;48.670;9.000;2022-07-29T05:43:43;19.20;99.90
30001;DHT22;16845;48.670;9.000;2022-07-29T05:46:11;19.10;99.90
30001;DHT22;16845;48.670;9.000;2022-07-29T05:48:41;19.00;99.90
30001;DHT22;16845;48.670;9.000;2022-07-29T05:51:09;19.10;99.90
30001;DHT22;16845;48.670;9.000;2022-07-29T05:53:37;19.30;99.90
30001;DHT22;16845;48.670;9.000;2022-07-29T05:56:06;19.40;99.90
30001;DHT22;16845;48.670;9.000;2022-07-29T05:58:34;19.50;99.90
30001;DHT22;16845;48.670;9.000;2022-07-29T06:01:02;19.50;99.90
30001;DHT22;16845;48.670;9.000;2022-07-29T06:03:30;19.60;99.90
30001;DHT22;16845;48.670;9.000;2022-07-29T06:06:00;19.60;99.90
30001;DHT22;16845;48.670;9.000;2022-07-29T06:08:28;19.70;99.90
30001;DHT22;16845;48.670;9.000;2022-07-29T06:10:56;19.70;99.90
30001;DHT22;16845;48.670;9.000;2022-07-29T06:13:24;19.80;99.90
30001;DHT22;16845;48.670;9.000;2022-07-29T06:15:52;20.00;99.90
30001;DHT22;16845;48.670;9.000;2022-07-29T06:18:20;20.10;99.90
30001;DHT22;16845;48.670;9.000;2022-07-29T06:20:50;20.40;99.90
30001;DHT22;16845;48.670;9.000;2022-07-29T06:23:20;20.60;99.90
30001;DHT22;16845;48.670;9.000;2022-07-29T06:25:48;20.80;99.90
30001;DHT22;16845;48.670;9.000;2022-07-29T06:28:16;21.10;99.90
30001;DHT22;16845;48.670;9.000;2022-07-29T06:30:44;21.30;99.90
30001;DHT22;16845;48.670;9.000;2022-07-29T06:33:16;21.40;99.90
30001;DHT22;16845;48.670;9.000;2022-07-29T06:35:44;21.70;99.90
30001;DHT22;16845;48.670;9.000;2022-07-29T06:38:22;21.80;99.90
30001;DHT22;16845;48.670;9.000;2022-07-29T06:40:59;22.00;99.90
30001;DHT22;16845;48.670;9.000;2022-07-29T06:43:28;22.20;99.90
30001;DHT22;16845;48.670;9.000;2022-07-29T06:45:59;22.00;99.90
30001;DHT22;16845;48.670;9.000;2022-07-29T06:48:28;22.20;99.90
30001;DHT22;16845;48.670;9.000;2022-07-29T06:50:56;22.00;99.90
30001;DHT22;16845;48.670;9.000;2022-07-29T06:53:25;21.90;99.90
30001;DHT22;16845;48.670;9.000;2022-07-29T06:55:53;21.90;99.90
30001;DHT22;16845;48.670;9.000;2022-07-29T06:58:21;22.00;99.90
30001;DHT22;16845;48.670;9.000;2022-07-29T07:00:49;22.00;99.90
30001;DHT22;16845;48.670;9.000;2022-07-29T07:03:18;22.10;99.90
30001;DHT22;16845;48.670;9.000;2022-07-29T07:05:47;22.60;99.90
30001;DHT22;16845;48.670;9.000;2022-07-29T07:08:15;22.80;99.90
30001;DHT22;16845;48.670;9.000;2022-07-29T07:10:45;23.10;99.90
30001;DHT22;16845;48.670;9.000;2022-07-29T07:13:14;23.10;99.90
30001;DHT22;16845;48.670;9.000;2022-07-29T07:15:43;23.10;99.90
30001;DHT22;16845;48.670;9.000;2022-07-29T07:18:12;23.40;99.90
30001;DHT22;16845;48.670;9.000;2022-07-29T07:20:40;23.30;99.90
30001;DHT22;16845;48.670;9.000;2022-07-29T07:23:08;23.30;99.90
30001;DHT22;16845;48.670;9.000;2022-07-29T07:25:36;23.30;99.90
30001;DHT22;16845;48.670;9.000;2022-07-29T07:28:05;23.20;99.90
30001;DHT22;16845;48.670;9.000;2022-07-29T07:30:33;23.40;99.90
30001;DHT22;16845;48.670;9.000;2022-07-29T07:33:02;24.10;99.90
30001;DHT22;16845;48.670;9.000;2022-07-29T07:35:30;24.50;99.90
30001;DHT22;16845;48.670;9.000;2022-07-29T07:37:58;25.00;99.90
30001;DHT22;16845;48.670;9.000;2022-07-29T07:40:27;25.70;99.90
30001;DHT22;16845;48.670;9.000;2022-07-29T07:42:55;25.90;99.90
30001;DHT22;16845;48.670;9.000;2022-07-29T07:45:24;26.10;99.90
30001;DHT22;16845;48.670;9.000;2022-07-29T07:47:52;26.10;99.90
30001;DHT22;16845;48.670;9.000;2022-07-29T07:50:20;26.10;99.90
30001;DHT22;16845;48.670;9.000;2022-07-29T07:52:49;26.00;99.90
30001;DHT22;16845;48.670;9.000;2022-07-29T07:55:18;26.40;99.90
30001;DHT22;16845;48.670;9.000;2022-07-29T07:57:47;26.80;99.90
30001;DHT22;16845;48.670;9.000;2022-07-29T08:00:16;26.80;99.90
30001;DHT22;16845;48.670;9.000;2022-07-29T08:02:47;27.20;99.90
30001;DHT22;16845;48.670;9.000;2022-07-29T08:05:15;27.90;99.90
30001;DHT22;16845;48.670;9.000;2022-07-29T08:07:45;28.50;99.90
30001;DHT22;16845;48.670;9.000;2022-07-29T08:10:13;28.80;99.90
30001;DHT22;16845;48.670;9.000;2022-07-29T08:12:43;29.20;99.90
30001;DHT22;16845;48.670;9.000;2022-07-29T08:15:11;29.50;99.90
30001;DHT22;16845;48.670;9.000;2022-07-29T08:17:39;29.50;99.90
30001;DHT22;16845;48.670;9.000;2022-07-29T08:20:10;29.50;99.90
30001;DHT22;16845;48.670;9.000;2022-07-29T08:22:38;29.50;99.90
30001;DHT22;16845;48.670;9.000;2022-07-29T08:25:06;29.60;99.90
30001;DHT22;16845;48.670;9.000;2022-07-29T08:27:34;29.30;99.90
30001;DHT22;16845;48.670;9.000;2022-07-29T08:30:10;29.30;99.90
30001;DHT22;16845;48.670;9.000;2022-07-29T08:32:38;29.50;99.90
30001;DHT22;16845;48.670;9.000;2022-07-29T08:35:22;30.00;99.90
30001;DHT22;16845;48.670;9.000;2022-07-29T08:37:50;29.10;99.90
30001;DHT22;16845;48.670;9.000;2022-07-29T08:40:19;28.50;99.90
30001;DHT22;16845;48.670;9.000;2022-07-29T08:42:58;29.20;99.90
30001;DHT22;16845;48.670;9.000;2022-07-29T08:45:28;29.10;99.90
30001;DHT22;16845;48.670;9.000;2022-07-29T08:47:57;29.40;99.90
30001;DHT22;16845;48.670;9.000;2022-07-29T08:50:26;29.40;99.90
30001;DHT22;16845;48.670;9.000;2022-07-29T08:52:54;29.80;99.90
30001;DHT22;16845;48.670;9.000;2022-07-29T08:55:26;30.60;99.90
30001;DHT22;16845;48.670;9.000;2022-07-29T08:57:54;31.50;99.40
30001;DHT22;16845;48.670;9.000;2022-07-29T09:00:24;32.30;99.30
30001;DHT22;16845;48.670;9.000;2022-07-29T09:02:57;32.80;98.30
30001;DHT22;16845;48.670;9.000;2022-07-29T09:05:27;33.00;96.40
30001;DHT22;16845;48.670;9.000;2022-07-29T09:07:56;32.60;97.90
30001;DHT22;16845;48.670;9.000;2022-07-29T09:10:24;32.90;96.10
30001;DHT22;16845;48.670;9.000;2022-07-29T09:12:52;33.00;97.70
30001;DHT22;16845;48.670;9.000;2022-07-29T09:15:21;33.50;95.50
30001;DHT22;16845;48.670;9.000;2022-07-29T09:17:49;33.60;94.90
30001;DHT22;16845;48.670;9.000;2022-07-29T09:20:19;33.50;93.30
30001;DHT22;16845;48.670;9.000;2022-07-29T09:22:50;34.20;92.70
30001;DHT22;16845;48.670;9.000;2022-07-29T09:25:33;34.00;92.70
30001;DHT22;16845;48.670;9.000;2022-07-29T09:28:11;33.00;92.00
30001;DHT22;16845;48.670;9.000;2022-07-29T09:30:50;32.50;93.10
30001;DHT22;16845;48.670;9.000;2022-07-29T09:33:19;32.20;93.50
30001;DHT22;16845;48.670;9.000;2022-07-29T09:35:59;32.20;94.30
30001;DHT22;16845;48.670;9.000;2022-07-29T09:38:31;32.50;93.20
30001;DHT22;16845;48.670;9.000;2022-07-29T09:41:01;32.10;92.60
30001;DHT22;16845;48.670;9.000;2022-07-29T09:43:32;31.70;95.00
30001;DHT22;16845;48.670;9.000;2022-07-29T09:46:10;30.60;93.40
30001;DHT22;16845;48.670;9.000;2022-07-29T09:48:38;29.80;95.60
30001;DHT22;16845;48.670;9.000;2022-07-29T09:51:16;30.30;95.90
30001;DHT22;16845;48.670;9.000;2022-07-29T09:53:50;30.40;94.40
30001;DHT22;16845;48.670;9.000;2022-07-29T09:56:19;30.60;94.10
30001;DHT22;16845;48.670;9.000;2022-07-29T09:58:47;30.20;94.10
30001;DHT22;16845;48.670;9.000;2022-07-29T10:01:15;30.40;95.20
30001;DHT22;16845;48.670;9.000;2022-07-29T10:03:52;31.80;94.90
30001;DHT22;16845;48.670;9.000;2022-07-29T10:06:20;32.30;93.70
30001;DHT22;16845;48.670;9.000;2022-07-29T10:08:49;32.30;92.30
30001;DHT22;16845;48.670;9.000;2022-07-29T10:11:19;33.70;91.40
30001;DHT22;16845;48.670;9.000;2022-07-29T10:13:48;35.30;89.40
30001;DHT22;16845;48.670;9.000;2022-07-29T10:16:16;35.30;90.30
30001;DHT22;16845;48.670;9.000;2022-07-29T10:18:44;34.50;87.70
30001;DHT22;16845;48.670;9.000;2022-07-29T10:21:13;34.80;88.30
30001;DHT22;16845;48.670;9.000;2022-07-29T10:24:04;35.00;85.10
30001;DHT22;16845;48.670;9.000;2022-07-29T10:26:40;34.90;86.50
30001;DHT22;16845;48.670;9.000;2022-07-29T10:29:09;36.00;84.00
30001;DHT22;16845;48.670;9.000;2022-07-29T10:31:43;34.60;84.70
30001;DHT22;16845;48.670;9.000;2022-07-29T10:34:19;32.80;85.10
30001;DHT22;16845;48.670;9.000;2022-07-29T10:36:56;30.50;88.40
30001;DHT22;16845;48.670;9.000;2022-07-29T10:39:39;29.00;89.60
30001;DHT22;16845;48.670;9.000;2022-07-29T10:42:18;27.50;92.40
30001;DHT22;16845;48.670;9.000;2022-07-29T10:45:02;26.70;94.60
30001;DHT22;16845;48.670;9.000;2022-07-29T10:47:31;25.90;95.90
30001;DHT22;16845;48.670;9.000;2022-07-29T10:50:03;25.10;97.30
30001;DHT22;16845;48.670;9.000;2022-07-29T10:52:52;24.20;99.90
30001;DHT22;16845;48.670;9.000;2022-07-29T10:55:38;23.70;99.90
30001;DHT22;16845;48.670;9.000;2022-07-29T10:58:15;22.60;99.90
30001;DHT22;16845;48.670;9.000;2022-07-29T11:00:45;21.80;99.90
30001;DHT22;16845;48.670;9.000;2022-07-29T11:03:44;21.20;99.90
30001;DHT22;16845;48.670;9.000;2022-07-29T11:06:15;20.40;99.90
30001;DHT22;16845;48.670;9.000;2022-07-29T11:09:16;20.00;99.90
30001;DHT22;16845;48.670;9.000;2022-07-29T11:12:47;19.60;99.90
30001;DHT22;16845;48.670;9.000;2022-07-29T11:15:17;19.40;99.90
30001;DHT22;16845;48.670;9.000;2022-07-29T11:18:08;19.30;99.90
30001;DHT22;16845;48.670;9.000;2022-07-29T11:20:44;19.30;99.90
30001;DHT22;16845;48.670;9.000;2022-07-29T11:23:24;19.30;99.90
30001;DHT22;16845;48.670;9.000;2022-07-29T11:26:15;19.30;99.90
30001;DHT22;16845;48.670;9.000;2022-07-29T11:28:59;19.30;99.90
30001;DHT22;16845;48.670;9.000;2022-07-29T11:31:34;19.30;99.90
30001;DHT22;16845;48.670;9.000;2022-07-29T11:34:20;19.30;99.90
30001;DHT22;16845;48.670;9.000;2022-07-29T11:37:14;19.20;99.90
30001;DHT22;16845;48.670;9.000;2022-07-29T11:39:45;19.30;99.90
30001;DHT22;16845;48.670;9.000;2022-07-29T11:42:39;19.40;99.90
30001;DHT22;16845;48.670;9.000;2022-07-29T11:45:13;19.40;99.90
30001;DHT22;16845;48.670;9.000;2022-07-29T11:48:03;19.40;99.90
30001;DHT22;16845;48.670;9.000;2022-07-29T11:50:52;19.40;99.90
30001;DHT22;16845;48.670;9.000;2022-07-29T11:53:23;19.40;99.90
30001;DHT22;16845;48.670;9.000;2022-07-29T11:55:59;19.30;99.90
30001;DHT22;16845;48.670;9.000;2022-07-29T11:58:29;19.40;99.90
30001;DHT22;16845;48.670;9.000;2022-07-29T12:00:59;19.50;99.90
30001;DHT22;16845;48.670;9.000;2022-07-29T12:03:31;19.60;99.90
30001;DHT22;16845;48.670;9.000;2022-07-29T12:06:03;19.70;99.90
30001;DHT22;16845;48.670;9.000;2022-07-29T12:08:40;20.20;99.90
30001;DHT22;16845;48.670;9.000;2022-07-29T12:11:16;20.60;99.90
30001;DHT22;16845;48.670;9.000;2022-07-29T12:13:48;21.00;99.90
30001;DHT22;16845;48.670;9.000;2022-07-29T12:16:17;21.20;99.90
30001;DHT22;16845;48.670;9.000;2022-07-29T12:18:57;21.40;99.90
30001;DHT22;16845;48.670;9.000;2022-07-29T12:21:26;21.70;99.90
30001;DHT22;16845;48.670;9.000;2022-07-29T12:23:56;21.70;99.90
30001;DHT22;16845;48.670;9.000;2022-07-29T12:26:34;21.70;99.90
30001;DHT22;16845;48.670;9.000;2022-07-29T12:29:02;21.60;99.90
30001;DHT22;16845;48.670;9.000;2022-07-29T12:31:38;21.60;99.90
30001;DHT22;16845;48.670;9.000;2022-07-29T12:34:10;21.60;99.90
30001;DHT22;16845;48.670;9.000;2022-07-29T12:36:39;21.40;99.90
30001;DHT22;16845;48.670;9.000;2022-07-29T12:39:08;21.40;99.90
30001;DHT22;16845;48.670;9.000;2022-07-29T12:41:37;21.30;99.90
30001;DHT22;16845;48.670;9.000;2022-07-29T12:44:05;21.10;99.90
30001;DHT22;16845;48.670;9.000;2022-07-29T12:46:33;21.00;99.90
30001;DHT22;16845;48.670;9.000;2022-07-29T12:49:03;20.80;99.90
30001;DHT22;16845;48.670;9.000;2022-07-29T12:51:32;20.60;99.90
30001;DHT22;16845;48.670;9.000;2022-07-29T12:54:05;20.30;99.90
30001;DHT22;16845;48.670;9.000;2022-07-29T12:56:34;19.70;99.90
30001;DHT22;16845;48.670;9.000;2022-07-29T12:59:12;19.30;99.90
30001;DHT22;16845;48.670;9.000;2022-07-29T13:01:40;19.00;99.90
30001;DHT22;16845;48.670;9.000;2022-07-29T13:04:10;18.80;99.90
30001;DHT22;16845;48.670;9.000;2022-07-29T13:06:39;18.70;99.90
30001;DHT22;16845;48.670;9.000;2022-07-29T13:09:09;18.60;99.90
30001;DHT22;16845;48.670;9.000;2022-07-29T13:11:39;18.50;99.90
30001;DHT22;16845;48.670;9.000;2022-07-29T13:14:29;18.40;99.90
30001;DHT22;16845;48.670;9.000;2022-07-29T13:17:03;18.40;99.90
30001;DHT22;16845;48.670;9.000;2022-07-29T13:19:38;18.30;99.90
30001;DHT22;16845;48.670;9.000;2022-07-29T13:22:08;18.30;99.90
30001;DHT22;16845;48.670;9.000;2022-07-29T13:24:47;18.30;99.90
30001;DHT22;16845;48.670;9.000;2022-07-29T13:27:16;18.40;99.90
30001;DHT22;16845;48.670;9.000;2022-07-29T13:29:44;18.60;99.90
30001;DHT22;16845;48.670;9.000;2022-07-29T13:32:13;18.90;99.90
30001;DHT22;16845;48.670;9.000;2022-07-29T13:34:42;19.20;99.90
30001;DHT22;16845;48.670;9.000;2022-07-29T13:37:10;19.40;99.90
30001;DHT22;16845;48.670;9.000;2022-07-29T13:39:38;19.40;99.90
30001;DHT22;16845;48.670;9.000;2022-07-29T13:42:07;19.70;99.90
30001;DHT22;16845;48.670;9.000;2022-07-29T13:44:36;19.80;99.90
30001;DHT22;16845;48.670;9.000;2022-07-29T13:47:05;20.20;99.90
30001;DHT22;16845;48.670;9.000;2022-07-29T13:49:33;20.40;99.90
30001;DHT22;16845;48.670;9.000;2022-07-29T13:52:02;20.70;99.90
30001;DHT22;16845;48.670;9.000;2022-07-29T13:54:33;20.90;99.90
30001;DHT22;16845;48.670;9.000;2022-07-29T13:57:08;21.20;99.90
30001;DHT22;16845;48.670;9.000;2022-07-29T13:59:37;21.30;99.90
30001;DHT22;16845;48.670;9.000;2022-07-29T14:02:05;21.50;99.90
30001;DHT22;16845;48.670;9.000;2022-07-29T14:04:34;21.90;99.90
30001;DHT22;16845;48.670;9.000;2022-07-29T14:07:06;22.10;99.90
30001;DHT22;16845;48.670;9.000;2022-07-29T14:09:35;22.10;99.90
30001;DHT22;16845;48.670;9.000;2022-07-29T14:12:08;22.20;99.90
30001;DHT22;16845;48.670;9.000;2022-07-29T14:14:36;22.30;99.90
30001;DHT22;16845;48.670;9.000;2022-07-29T14:17:04;22.30;99.90
30001;DHT22;16845;48.670;9.000;2022-07-29T14:19:34;22.40;99.90
30001;DHT22;16845;48.670;9.000;2022-07-29T14:22:07;22.30;99.90
30001;DHT22;16845;48.670;9.000;2022-07-29T14:24:37;22.30;99.90
30001;DHT22;16845;48.670;9.000;2022-07-29T14:27:06;22.40;99.90
30001;DHT22;16845;48.670;9.000;2022-07-29T14:29:34;22.40;99.90
30001;DHT22;16845;48.670;9.000;2022-07-29T14:32:05;22.50;99.90
30001;DHT22;16845;48.670;9.000;2022-07-29T14:34:33;22.50;99.90
30001;DHT22;16845;48.670;9.000;2022-07-29T14:37:01;22.60;99.90
30001;DHT22;16845;48.670;9.000;2022-07-29T14:39:33;22.50;99.90
30001;DHT22;16845;48.670;9.000;2022-07-29T14:42:08;22.60;99.90
30001;DHT22;16845;48.670;9.000;2022-07-29T14:44:38;22.90;99.90
30001;DHT22;16845;48.670;9.000;2022-07-29T14:47:07;23.10;99.90
30001;DHT22;16845;48.670;9.000;2022-07-29T14:49:35;23.10;99.90
30001;DHT22;16845;48.670;9.000;2022-07-29T14:52:04;23.20;99.90
30001;DHT22;16845;48.670;9.000;2022-07-29T14:54:33;23.20;99.90
30001;DHT22;16845;48.670;9.000;2022-07-29T14:57:01;23.20;99.90
30001;DHT22;16845;48.670;9.000;2022-07-29T14:59:29;23.10;99.90
30001;DHT22;16845;48.670;9.000;2022-07-29T15:01:57;22.90;99.90
30001;DHT22;16845;48.670;9.000;2022-07-29T15:04:25;22.90;99.90
30001;DHT22;16845;48.670;9.000;2022-07-29T15:06:53;22.90;99.90
30001;DHT22;16845;48.670;9.000;2022-07-29T15:09:21;23.00;99.90
30001;DHT22;16845;48.670;9.000;2022-07-29T15:11:51;23.00;99.90
30001;DHT22;16845;48.670;9.000;2022-07-29T15:14:18;22.90;99.90
30001;DHT22;16845;48.670;9.000;2022-07-29T15:16:46;23.00;99.90
30001;DHT22;16845;48.670;9.000;2022-07-29T15:19:18;22.90;99.90
30001;DHT22;16845;48.670;9.000;2022-07-29T15:21:46;22.80;99.90
30001;DHT22;16845;48.670;9.000;2022-07-29T15:24:16;22.70;99.90
30001;DHT22;16845;48.670;9.000;2022-07-29T15:26:44;22.70;99.90
30001;DHT22;16845;48.670;9.000;2022-07-29T15:29:14;22.60;99.90
30001;DHT22;16845;48.670;9.000;2022-07-29T15:31:42;22.50;99.90
30001;DHT22;16845;48.670;9.000;2022-07-29T15:34:10;22.50;99.90
30001;DHT22;16845;48.670;9.000;2022-07-29T15:36:38;22.60;99.90
30001;DHT22;16845;48.670;9.000;2022-07-29T15:39:21;22.60;99.90
30001;DHT22;16845;48.670;9.000;2022-07-29T15:41:50;22.50;99.90
30001;DHT22;16845;48.670;9.000;2022-07-29T15:44:19;22.40;99.90
30001;DHT22;16845;48.670;9.000;2022-07-29T15:46:48;22.30;99.90
30001;DHT22;16845;48.670;9.000;2022-07-29T15:49:32;22.30;99.90
30001;DHT22;16845;48.670;9.000;2022-07-29T15:52:15;22.30;99.90
30001;DHT22;16845;48.670;9.000;2022-07-29T15:54:44;22.40;99.90
30001;DHT22;16845;48.670;9.000;2022-07-29T15:57:12;22.40;99.90